Terminal Aerodrome Forecast
Issued by NWS

Home | Current Version | Previous Version | Text Only | Print | Product List | Glossary On
Versions: 1 2 3 4 5 6 7 8 9 10 11 12 13 14 15 16 17
000
FTUS44 KLIX 301728
TAFHUM
TAF
KHUM 301728Z 3018/0118 14018KT P6SM OVC010
      TEMPO 3018/3022 VRB25G40KT 1SM TSRA OVC010CB
     FM302200 16013KT P6SM SHRA BKN025 OVC040
     FM010100 16011KT P6SM OVC015
     FM010500 16008KT P6SM OVC010=

USA.gov is the U.S. government's official web portal to all federal, state and local government web resources and services.